Time;durP1;ratioP1;P1;durP2;ratioP2;P2;SDS_P1;SDS_P2;PMS_P1;PMS_P2;Temp;Humidity;BMP_temperature;BMP_pressure;BME280_temperature;BME280_humidity;BME280_pressure;Samples;Min_cycle;Max_cycle;Signal;HPM_P1;HPM_P2
2022/03/26 00:02:18;;;;;;;40.50;22.50;;;;;;;;;;5051636;28;20571;-57
2022/03/26 00:04:44;;;;;;;41.13;21.30;;;;;;;;;;5071234;28;20421;-55
2022/03/26 00:07:10;;;;;;;40.33;22.87;;;;;;;;;;5074002;28;20418;-55
2022/03/26 00:09:36;;;;;;;41.97;23.87;;;;;;;;;;5065985;28;20580;-55
2022/03/26 00:12:03;;;;;;;39.97;21.57;;;;;;;;;;5074862;28;20422;-56
2022/03/26 00:14:29;;;;;;;39.47;21.47;;;;;;;;;;5074761;28;20477;-55
2022/03/26 00:16:55;;;;;;;40.27;21.03;;;;;;;;;;5056537;28;20901;-55
2022/03/26 00:19:21;;;;;;;44.17;22.20;;;;;;;;;;5069298;28;20435;-57
2022/03/26 00:21:48;;;;;;;41.00;21.20;;;;;;;;;;5070722;28;20429;-55
2022/03/26 00:24:14;;;;;;;36.50;21.90;;;;;;;;;;5074090;28;20410;-55
2022/03/26 00:26:40;;;;;;;39.70;22.13;;;;;;;;;;5074104;28;20950;-55
2022/03/26 00:29:08;;;;;;;43.80;20.80;;;;;;;;;;5074074;28;20414;-56
2022/03/26 00:31:36;;;;;;;39.93;21.20;;;;;;;;;;5073836;28;20421;-55
2022/03/26 00:34:02;;;;;;;50.53;21.70;;;;;;;;;;5073370;28;20537;-56
2022/03/26 00:36:28;;;;;;;42.43;21.40;;;;;;;;;;5074016;28;20507;-57
2022/03/26 00:38:54;;;;;;;37.33;19.47;;;;;;;;;;5073813;28;20858;-56
2022/03/26 00:41:20;;;;;;;37.00;20.10;;;;;;;;;;5073655;28;20407;-56
2022/03/26 00:43:46;;;;;;;37.33;20.20;;;;;;;;;;5073702;28;20177;-57
2022/03/26 00:46:12;;;;;;;36.37;21.17;;;;;;;;;;5073820;28;20188;-56
2022/03/26 00:48:38;;;;;;;40.67;19.30;;;;;;;;;;5055843;28;20192;-56
2022/03/26 00:51:04;;;;;;;36.97;20.63;;;;;;;;;;5070363;28;20434;-56
2022/03/26 00:53:30;;;;;;;41.37;20.40;;;;;;;;;;5068422;28;20231;-56
2022/03/26 00:55:56;;;;;;;43.17;21.40;;;;;;;;;;5073673;28;21025;-57
2022/03/26 00:58:22;;;;;;;40.17;22.93;;;;;;;;;;5073962;28;20417;-55
2022/03/26 01:00:48;;;;;;;34.33;20.70;;;;;;;;;;5073924;28;20468;-55
2022/03/26 01:03:16;;;;;;;39.63;19.90;;;;;;;;;;5073964;28;20181;-56
2022/03/26 01:05:43;;;;;;;46.47;23.63;;;;;;;;;;5073881;28;20453;-56
2022/03/26 01:08:09;;;;;;;41.20;22.80;;;;;;;;;;5069706;28;20432;-56
2022/03/26 01:10:35;;;;;;;36.17;19.53;;;;;;;;;;5068551;28;20433;-56
2022/03/26 01:13:01;;;;;;;41.13;19.70;;;;;;;;;;5073945;28;20191;-57
2022/03/26 01:15:27;;;;;;;39.73;18.60;;;;;;;;;;5073500;28;20553;-56
2022/03/26 01:17:53;;;;;;;32.30;18.80;;;;;;;;;;5072761;28;20430;-57
2022/03/26 01:20:19;;;;;;;60.97;22.10;;;;;;;;;;5073229;28;20764;-57
2022/03/26 01:22:45;;;;;;;40.77;18.20;;;;;;;;;;5072597;28;20458;-56
2022/03/26 01:25:11;;;;;;;35.40;18.90;;;;;;;;;;5056743;28;20431;-56
2022/03/26 01:27:38;;;;;;;38.83;20.07;;;;;;;;;;5072764;28;20919;-56
2022/03/26 01:30:04;;;;;;;33.83;17.10;;;;;;;;;;5072800;28;20422;-56
2022/03/26 01:32:31;;;;;;;28.00;16.97;;;;;;;;;;5072878;28;20422;-56
2022/03/26 01:34:57;;;;;;;33.80;18.10;;;;;;;;;;5072769;28;20932;-56
2022/03/26 01:37:24;;;;;;;36.40;17.83;;;;;;;;;;5072232;28;20466;-56
2022/03/26 01:39:50;;;;;;;39.00;18.23;;;;;;;;;;5072974;28;20426;-56
2022/03/26 01:42:16;;;;;;;42.87;19.30;;;;;;;;;;5069005;28;20445;-56
2022/03/26 01:44:42;;;;;;;32.17;18.03;;;;;;;;;;5073556;28;20437;-56
2022/03/26 01:47:08;;;;;;;39.43;19.30;;;;;;;;;;5073019;28;20999;-56
2022/03/26 01:49:35;;;;;;;35.63;18.87;;;;;;;;;;5073014;28;20461;-56
2022/03/26 01:52:02;;;;;;;45.27;19.30;;;;;;;;;;5072993;28;20458;-56
2022/03/26 01:54:28;;;;;;;37.87;19.40;;;;;;;;;;5072975;28;20423;-56
2022/03/26 01:56:54;;;;;;;49.53;19.97;;;;;;;;;;5072764;28;20502;-56
2022/03/26 01:59:21;;;;;;;32.87;18.87;;;;;;;;;;5072139;28;20908;-56
2022/03/26 02:01:47;;;;;;;46.37;18.93;;;;;;;;;;5064585;28;20422;-56
2022/03/26 02:04:13;;;;;;;37.40;19.90;;;;;;;;;;5072852;28;20761;-56
2022/03/26 02:06:40;;;;;;;43.63;18.23;;;;;;;;;;5072672;28;20810;-56
2022/03/26 02:09:10;;;;;;;40.10;17.87;;;;;;;;;;5054755;28;21171;-56
2022/03/26 02:11:38;;;;;;;34.43;17.43;;;;;;;;;;5072590;28;20430;-56
2022/03/26 02:14:04;;;;;;;35.80;19.40;;;;;;;;;;5070818;28;20433;-56
2022/03/26 02:16:31;;;;;;;35.00;18.07;;;;;;;;;;5051223;28;20474;-56
2022/03/26 02:18:58;;;;;;;34.20;18.33;;;;;;;;;;5070627;28;20443;-56
2022/03/26 02:21:24;;;;;;;38.27;19.40;;;;;;;;;;5072377;28;20406;-56
2022/03/26 02:23:51;;;;;;;32.63;17.40;;;;;;;;;;5072464;28;20505;-56
2022/03/26 02:26:18;;;;;;;38.80;19.00;;;;;;;;;;5072339;28;20472;-56
2022/03/26 02:28:44;;;;;;;35.97;18.70;;;;;;;;;;5072272;28;20422;-56
2022/03/26 02:31:11;;;;;;;33.80;17.33;;;;;;;;;;5064305;28;20896;-56
2022/03/26 02:33:38;;;;;;;45.73;19.80;;;;;;;;;;5072075;28;20415;-56
2022/03/26 02:36:04;;;;;;;32.87;17.50;;;;;;;;;;5071946;28;20611;-56
2022/03/26 02:38:30;;;;;;;31.50;16.40;;;;;;;;;;5072068;28;20438;-56
2022/03/26 02:40:56;;;;;;;38.43;17.67;;;;;;;;;;5071995;28;20465;-56
2022/03/26 02:43:22;;;;;;;29.60;16.13;;;;;;;;;;5072091;28;20427;-56
2022/03/26 02:45:48;;;;;;;30.00;16.00;;;;;;;;;;5071586;28;20465;-56
2022/03/26 02:48:15;;;;;;;38.83;18.80;;;;;;;;;;5062996;28;20426;-56
2022/03/26 02:50:41;;;;;;;30.73;17.90;;;;;;;;;;5071830;28;20872;-56
2022/03/26 02:53:07;;;;;;;33.60;17.83;;;;;;;;;;5071890;28;20418;-56
2022/03/26 02:55:34;;;;;;;40.77;18.33;;;;;;;;;;5071771;28;20472;-56
2022/03/26 02:58:00;;;;;;;35.30;17.40;;;;;;;;;;5071740;28;20429;-56
2022/03/26 03:00:27;;;;;;;27.97;16.97;;;;;;;;;;5071233;28;20953;-56
2022/03/26 03:02:52;;;;;;;33.53;18.10;;;;;;;;;;5067651;28;20431;-56
2022/03/26 03:05:19;;;;;;;34.80;17.63;;;;;;;;;;5071235;28;20422;-56
2022/03/26 03:07:45;;;;;;;38.10;19.47;;;;;;;;;;5071441;28;20512;-56
2022/03/26 03:10:15;;;;;;;36.83;21.33;;;;;;;;;;5071827;28;20414;-56
2022/03/26 03:12:41;;;;;;;32.60;15.67;;;;;;;;;;5071604;28;20414;-56
2022/03/26 03:15:07;;;;;;;30.03;17.30;;;;;;;;;;5053247;28;20464;-56
2022/03/26 03:17:40;;;;;;;35.90;16.90;;;;;;;;;;5071540;28;20470;-56
2022/03/26 03:20:07;;;;;;;33.73;16.70;;;;;;;;;;5070729;28;20781;-56
2022/03/26 03:22:33;;;;;;;35.43;16.40;;;;;;;;;;5048215;28;20419;-56
2022/03/26 03:24:59;;;;;;;32.03;17.53;;;;;;;;;;5071427;28;20931;-56
2022/03/26 03:27:25;;;;;;;30.97;16.03;;;;;;;;;;5071345;28;20450;-56
2022/03/26 03:29:51;;;;;;;32.87;15.23;;;;;;;;;;5071148;28;20488;-56
2022/03/26 03:32:18;;;;;;;37.70;16.70;;;;;;;;;;5071380;28;20430;-56
2022/03/26 03:34:44;;;;;;;36.67;15.30;;;;;;;;;;5071380;28;20468;-56
2022/03/26 03:37:10;;;;;;;30.77;14.97;;;;;;;;;;5071099;28;20561;-55
2022/03/26 03:39:36;;;;;;;36.67;17.50;;;;;;;;;;5061311;28;20438;-56
2022/03/26 03:42:03;;;;;;;29.90;16.63;;;;;;;;;;5071361;28;20433;-56
2022/03/26 03:44:29;;;;;;;32.93;17.20;;;;;;;;;;5053055;28;20799;-56
2022/03/26 03:46:55;;;;;;;28.07;15.57;;;;;;;;;;5071192;28;20509;-56
2022/03/26 03:49:21;;;;;;;35.33;15.83;;;;;;;;;;5071294;28;20510;-57
2022/03/26 03:51:47;;;;;;;33.67;15.40;;;;;;;;;;5070939;28;20426;-56
2022/03/26 03:54:14;;;;;;;24.43;15.30;;;;;;;;;;5070114;28;20437;-56
2022/03/26 03:56:41;;;;;;;27.43;15.30;;;;;;;;;;5066584;28;20461;-57
2022/03/26 03:59:07;;;;;;;29.50;17.10;;;;;;;;;;5070526;28;20947;-56
2022/03/26 04:01:33;;;;;;;27.30;14.87;;;;;;;;;;5071178;28;20995;-55
2022/03/26 04:04:00;;;;;;;24.63;15.50;;;;;;;;;;5070894;28;20450;-56
2022/03/26 04:06:26;;;;;;;34.50;15.63;;;;;;;;;;5070759;28;20418;-56
2022/03/26 04:08:52;;;;;;;32.27;15.50;;;;;;;;;;5070790;28;20755;-56
2022/03/26 04:11:18;;;;;;;37.40;15.83;;;;;;;;;;5070757;28;20430;-56
2022/03/26 04:13:46;;;;;;;29.47;14.77;;;;;;;;;;5063447;28;20439;-56
2022/03/26 04:16:12;;;;;;;29.20;14.30;;;;;;;;;;5043924;28;20467;-56
2022/03/26 04:18:38;;;;;;;33.00;14.70;;;;;;;;;;5050547;28;20494;-56
2022/03/26 04:21:04;;;;;;;32.33;16.20;;;;;;;;;;5050816;28;20427;-56
2022/03/26 04:23:30;;;;;;;31.83;15.47;;;;;;;;;;5050547;28;20419;-56
2022/03/26 04:25:56;;;;;;;31.17;15.30;;;;;;;;;;5050665;28;20419;-56
2022/03/26 04:28:22;;;;;;;27.63;16.63;;;;;;;;;;5050662;28;20959;-56
2022/03/26 04:30:48;;;;;;;31.27;16.13;;;;;;;;;;5041803;28;20446;-56
2022/03/26 04:33:15;;;;;;;28.07;15.57;;;;;;;;;;5050425;28;20501;-56
2022/03/26 04:35:41;;;;;;;30.90;15.87;;;;;;;;;;5050475;28;20423;-57
2022/03/26 04:38:07;;;;;;;36.37;18.60;;;;;;;;;;5050425;28;20819;-56
2022/03/26 04:40:34;;;;;;;38.50;17.03;;;;;;;;;;5050580;28;20407;-56
2022/03/26 04:43:00;;;;;;;39.60;17.77;;;;;;;;;;5050632;28;20777;-56
2022/03/26 04:45:26;;;;;;;32.80;16.00;;;;;;;;;;5045178;28;20914;-56
2022/03/26 04:47:52;;;;;;;31.63;17.00;;;;;;;;;;5047878;28;20429;-56
2022/03/26 04:50:18;;;;;;;26.30;16.77;;;;;;;;;;5050226;28;20423;-56
2022/03/26 04:52:44;;;;;;;37.93;16.30;;;;;;;;;;5053190;28;20430;-56
2022/03/26 04:55:13;;;;;;;39.63;16.70;;;;;;;;;;5053911;28;20820;-56
2022/03/26 04:57:41;;;;;;;30.80;17.57;;;;;;;;;;5053705;28;20466;-56
2022/03/26 05:00:08;;;;;;;33.53;17.90;;;;;;;;;;5053798;28;20424;-56
2022/03/26 05:02:36;;;;;;;34.97;15.87;;;;;;;;;;5050424;28;20462;-56
2022/03/26 05:05:03;;;;;;;37.67;18.50;;;;;;;;;;5053463;28;20419;-56
2022/03/26 05:07:48;;;;;;;36.17;18.27;;;;;;;;;;5053324;28;20420;-56
2022/03/26 05:10:22;;;;;;;39.90;16.60;;;;;;;;;;5045988;28;20498;-56
2022/03/26 05:12:49;;;;;;;31.40;18.00;;;;;;;;;;5053769;28;20447;-56
2022/03/26 05:15:15;;;;;;;27.13;16.57;;;;;;;;;;5053260;28;21039;-56
2022/03/26 05:17:42;;;;;;;32.60;17.53;;;;;;;;;;5047887;28;20463;-56
2022/03/26 05:20:09;;;;;;;32.97;17.20;;;;;;;;;;5053301;28;20437;-56
2022/03/26 05:22:36;;;;;;;30.33;17.63;;;;;;;;;;5053393;28;20469;-56
2022/03/26 05:25:02;;;;;;;24.10;15.20;;;;;;;;;;5053659;28;20418;-56
2022/03/26 05:27:28;;;;;;;31.73;19.03;;;;;;;;;;5053180;28;20419;-56
2022/03/26 05:29:54;;;;;;;41.23;18.90;;;;;;;;;;5052970;28;20422;-56
2022/03/26 05:32:20;;;;;;;32.07;16.23;;;;;;;;;;5035057;28;20789;-56
2022/03/26 05:34:46;;;;;;;32.47;16.33;;;;;;;;;;5043841;28;20447;-56
2022/03/26 05:37:13;;;;;;;33.97;16.70;;;;;;;;;;5052855;28;20542;-56
2022/03/26 05:39:39;;;;;;;36.13;15.67;;;;;;;;;;5052884;28;20438;-56
2022/03/26 05:42:05;;;;;;;34.57;17.40;;;;;;;;;;5034651;28;20490;-55
2022/03/26 05:44:31;;;;;;;33.40;17.10;;;;;;;;;;5052702;28;20429;-56
2022/03/26 05:46:58;;;;;;;32.50;17.20;;;;;;;;;;5052893;28;20483;-56
2022/03/26 05:49:24;;;;;;;33.47;18.50;;;;;;;;;;5050279;28;20498;-56
2022/03/26 05:51:50;;;;;;;29.77;17.93;;;;;;;;;;5049998;28;20776;-56
2022/03/26 05:54:16;;;;;;;37.17;17.80;;;;;;;;;;5052850;28;20419;-56
2022/03/26 05:56:51;;;;;;;29.97;17.70;;;;;;;;;;5052998;28;20795;-56
2022/03/26 05:59:18;;;;;;;31.70;15.73;;;;;;;;;;5045475;28;20505;-56
2022/03/26 06:01:44;;;;;;;26.47;15.87;;;;;;;;;;5034731;28;20474;-56
2022/03/26 06:04:09;;;;;;;31.20;18.07;;;;;;;;;;5052291;28;20419;-56
2022/03/26 06:06:35;;;;;;;35.00;18.87;;;;;;;;;;5052659;28;20427;-56
2022/03/26 06:09:02;;;;;;;44.17;19.13;;;;;;;;;;5051112;28;20565;-56
2022/03/26 06:11:28;;;;;;;36.83;19.90;;;;;;;;;;5034751;28;20863;-56
2022/03/26 06:13:54;;;;;;;35.50;17.40;;;;;;;;;;5052360;28;20955;-56
2022/03/26 06:16:21;;;;;;;36.20;17.70;;;;;;;;;;5071259;28;20505;-56
2022/03/26 06:18:47;;;;;;;37.40;17.13;;;;;;;;;;5054401;28;20924;-56
2022/03/26 06:21:13;;;;;;;32.40;17.23;;;;;;;;;;5070680;28;20426;-56
2022/03/26 06:23:39;;;;;;;29.33;16.50;;;;;;;;;;5071749;28;20506;-55
2022/03/26 06:26:06;;;;;;;32.77;16.70;;;;;;;;;;5072268;28;20450;-56
2022/03/26 06:28:32;;;;;;;28.27;17.70;;;;;;;;;;5064902;28;20501;-55
2022/03/26 06:30:58;;;;;;;32.20;17.00;;;;;;;;;;5062574;28;20429;-54
2022/03/26 06:33:25;;;;;;;27.33;15.77;;;;;;;;;;5066406;28;20501;-53
2022/03/26 06:35:51;;;;;;;22.33;14.43;;;;;;;;;;5072305;28;20422;-56
2022/03/26 06:38:17;;;;;;;30.10;16.10;;;;;;;;;;5073617;28;20881;-52
2022/03/26 06:40:43;;;;;;;38.73;19.57;;;;;;;;;;5073081;28;20458;-53
2022/03/26 06:43:09;;;;;;;32.57;16.70;;;;;;;;;;5057746;28;20415;-54
2022/03/26 06:45:36;;;;;;;29.17;17.03;;;;;;;;;;5072437;28;20438;-54
2022/03/26 06:48:02;;;;;;;37.47;18.03;;;;;;;;;;5073195;28;20429;-54
2022/03/26 06:50:29;;;;;;;32.80;19.00;;;;;;;;;;5069480;28;20517;-55
2022/03/26 06:52:55;;;;;;;32.17;18.50;;;;;;;;;;5077506;28;20418;-54
2022/03/26 06:55:21;;;;;;;35.83;18.73;;;;;;;;;;5080573;28;20963;-54
2022/03/26 06:57:49;;;;;;;29.23;18.40;;;;;;;;;;5079702;28;20486;-56
2022/03/26 07:00:15;;;;;;;33.00;17.50;;;;;;;;;;5075522;28;20584;-54
2022/03/26 07:02:42;;;;;;;34.27;19.23;;;;;;;;;;5077887;28;20454;-54
2022/03/26 07:05:09;;;;;;;30.00;18.97;;;;;;;;;;5059689;28;20952;-54
2022/03/26 07:07:35;;;;;;;30.87;17.90;;;;;;;;;;5071695;28;20428;-54
2022/03/26 07:10:02;;;;;;;40.13;20.97;;;;;;;;;;5073452;28;20450;-54
2022/03/26 07:12:28;;;;;;;36.17;18.60;;;;;;;;;;5053708;28;20811;-55
2022/03/26 07:14:54;;;;;;;40.67;22.77;;;;;;;;;;5062814;28;20463;-55
2022/03/26 07:17:20;;;;;;;30.17;18.97;;;;;;;;;;5051868;28;20973;-56
2022/03/26 07:19:46;;;;;;;37.13;20.90;;;;;;;;;;5051796;28;20501;-55
2022/03/26 07:22:12;;;;;;;40.07;20.00;;;;;;;;;;5042747;28;20475;-57
2022/03/26 07:24:38;;;;;;;37.20;20.07;;;;;;;;;;5037384;28;20460;-55
2022/03/26 07:27:05;;;;;;;39.43;19.30;;;;;;;;;;5042525;28;20533;-54
2022/03/26 07:29:32;;;;;;;32.77;19.17;;;;;;;;;;5044677;28;20232;-54
2022/03/26 07:31:58;;;;;;;43.53;19.97;;;;;;;;;;5037072;28;20436;-54
2022/03/26 07:34:26;;;;;;;38.57;20.97;;;;;;;;;;5038109;28;20966;-55
2022/03/26 07:36:52;;;;;;;44.23;23.87;;;;;;;;;;5041124;28;20554;-55
2022/03/26 07:39:18;;;;;;;44.33;22.73;;;;;;;;;;5043633;28;20483;-54
2022/03/26 07:41:45;;;;;;;37.90;21.47;;;;;;;;;;5045353;28;21055;-54
2022/03/26 07:44:11;;;;;;;38.60;21.27;;;;;;;;;;5038487;28;20751;-54
2022/03/26 07:46:37;;;;;;;37.00;22.00;;;;;;;;;;5046426;28;20427;-55
2022/03/26 07:49:05;;;;;;;46.77;22.07;;;;;;;;;;5041343;28;20924;-54
2022/03/26 07:51:31;;;;;;;55.53;24.07;;;;;;;;;;5040385;28;20431;-55
2022/03/26 07:53:57;;;;;;;43.17;24.87;;;;;;;;;;5036971;28;20427;-58
2022/03/26 07:56:23;;;;;;;47.80;24.50;;;;;;;;;;5042018;28;20938;-56
2022/03/26 07:58:49;;;;;;;43.53;23.63;;;;;;;;;;5039232;28;20420;-55
2022/03/26 08:01:15;;;;;;;41.20;23.33;;;;;;;;;;5041980;28;20428;-54
2022/03/26 08:03:41;;;;;;;47.17;24.60;;;;;;;;;;5041854;28;20185;-54
2022/03/26 08:06:07;;;;;;;41.77;22.03;;;;;;;;;;5040310;28;20459;-54
2022/03/26 08:08:33;;;;;;;46.90;23.73;;;;;;;;;;5041249;28;20848;-55
2022/03/26 08:11:00;;;;;;;44.43;24.60;;;;;;;;;;5040809;28;20439;-56
2022/03/26 08:13:27;;;;;;;61.80;24.77;;;;;;;;;;5044115;28;20427;-56
2022/03/26 08:15:53;;;;;;;48.37;25.47;;;;;;;;;;5037101;28;20472;-55
2022/03/26 08:18:19;;;;;;;39.73;21.87;;;;;;;;;;5050386;28;20502;-55
2022/03/26 08:20:45;;;;;;;45.43;26.10;;;;;;;;;;5052420;28;20912;-55
2022/03/26 08:23:11;;;;;;;44.17;24.07;;;;;;;;;;5057395;28;20494;-57
2022/03/26 08:28:22;;;;;;;52.70;26.63;;;;;;;;;;5054823;28;20426;-56
2022/03/26 08:30:49;;;;;;;45.77;23.17;;;;;;;;;;5050803;28;20439;-55
2022/03/26 08:33:16;;;;;;;50.20;23.90;;;;;;;;;;5062484;28;20579;-55
2022/03/26 08:35:42;;;;;;;50.70;23.43;;;;;;;;;;5046088;28;20426;-55
2022/03/26 08:38:08;;;;;;;46.97;26.42;;;;;;;;;;5052538;28;20427;-55
2022/03/26 08:40:35;;;;;;;48.10;27.43;;;;;;;;;;5049181;28;20410;-55
2022/03/26 08:43:01;;;;;;;58.80;23.43;;;;;;;;;;5053869;28;20411;-55
2022/03/26 08:45:28;;;;;;;44.87;25.57;;;;;;;;;;5053847;28;20415;-54
2022/03/26 08:47:54;;;;;;;52.90;25.97;;;;;;;;;;5046410;28;20522;-56
2022/03/26 08:50:20;;;;;;;49.20;24.07;;;;;;;;;;5049067;28;21958;-56
2022/03/26 08:52:47;;;;;;;48.30;24.20;;;;;;;;;;5045425;28;21075;-57
2022/03/26 08:55:14;;;;;;;53.17;24.93;;;;;;;;;;5053001;28;20478;-58
2022/03/26 08:57:40;;;;;;;53.57;25.60;;;;;;;;;;5066441;28;20514;-57
2022/03/26 09:00:07;;;;;;;43.23;23.10;;;;;;;;;;5052640;28;20428;-66
2022/03/26 09:02:33;;;;;;;42.33;24.67;;;;;;;;;;5051307;28;20446;-55
2022/03/26 09:04:59;;;;;;;48.30;26.07;;;;;;;;;;5051544;28;20431;-57
2022/03/26 09:07:25;;;;;;;49.80;25.50;;;;;;;;;;5051800;28;20443;-57
2022/03/26 09:09:51;;;;;;;47.20;26.70;;;;;;;;;;5052433;28;20440;-56
2022/03/26 09:12:17;;;;;;;52.33;27.87;;;;;;;;;;5052693;28;20432;-56
2022/03/26 09:14:43;;;;;;;57.03;27.53;;;;;;;;;;5056155;28;20553;-55
2022/03/26 09:17:09;;;;;;;49.50;26.67;;;;;;;;;;5050921;28;20467;-57
2022/03/26 09:19:36;;;;;;;47.63;27.67;;;;;;;;;;5063898;28;20421;-56
2022/03/26 09:22:02;;;;;;;61.23;28.47;;;;;;;;;;5072385;28;20418;-55
2022/03/26 09:24:28;;;;;;;56.47;27.90;;;;;;;;;;5071168;28;20442;-57
2022/03/26 09:26:54;;;;;;;45.87;25.80;;;;;;;;;;5072286;28;20419;-58
2022/03/26 09:29:20;;;;;;;53.07;27.60;;;;;;;;;;5071961;28;20962;-57
2022/03/26 09:31:46;;;;;;;64.23;26.83;;;;;;;;;;5072011;28;20415;-56
2022/03/26 09:34:12;;;;;;;49.47;26.97;;;;;;;;;;5072021;28;20476;-59
2022/03/26 09:36:38;;;;;;;49.47;27.60;;;;;;;;;;5061380;28;20489;-56
2022/03/26 09:39:04;;;;;;;47.63;25.40;;;;;;;;;;5070644;28;20423;-56
2022/03/26 09:41:32;;;;;;;57.80;28.27;;;;;;;;;;5053609;28;20426;-57
2022/03/26 09:43:58;;;;;;;49.83;26.30;;;;;;;;;;5053635;28;20438;-57
2022/03/26 09:46:24;;;;;;;42.20;24.40;;;;;;;;;;5071604;28;20458;-56
2022/03/26 09:48:50;;;;;;;43.33;24.70;;;;;;;;;;5071194;28;20957;-57
2022/03/26 09:51:19;;;;;;;44.73;26.60;;;;;;;;;;5071472;28;20419;-56
2022/03/26 09:53:45;;;;;;;47.30;25.63;;;;;;;;;;5065474;28;20538;-58
2022/03/26 09:56:12;;;;;;;49.87;25.90;;;;;;;;;;5063298;28;20516;-57
2022/03/26 09:58:38;;;;;;;46.90;25.57;;;;;;;;;;5053487;28;20434;-56
2022/03/26 10:01:04;;;;;;;49.33;23.93;;;;;;;;;;5071418;28;20449;-58
2022/03/26 10:03:30;;;;;;;47.07;25.77;;;;;;;;;;5071049;28;20274;-57
2022/03/26 10:06:03;;;;;;;53.70;27.30;;;;;;;;;;5071076;28;20422;-56
2022/03/26 10:08:31;;;;;;;44.30;24.90;;;;;;;;;;5071196;28;20418;-56
2022/03/26 10:10:57;;;;;;;38.83;23.77;;;;;;;;;;5070335;28;20422;-57
2022/03/26 10:13:36;;;;;;;46.67;23.90;;;;;;;;;;5041135;28;20427;-57
2022/03/26 10:16:03;;;;;;;46.37;23.57;;;;;;;;;;5052014;28;20537;-57
2022/03/26 10:18:34;;;;;;;48.20;25.40;;;;;;;;;;5051168;28;20435;-57
2022/03/26 10:21:01;;;;;;;48.40;25.50;;;;;;;;;;5051261;28;20470;-57
2022/03/26 10:23:30;;;;;;;45.23;24.73;;;;;;;;;;5051246;28;20466;-57
2022/03/26 10:26:05;;;;;;;45.00;24.80;;;;;;;;;;5051352;28;20426;-56
2022/03/26 10:28:31;;;;;;;41.00;25.10;;;;;;;;;;5043926;28;20435;-58
2022/03/26 10:34:11;;;;;;;52.90;25.30;;;;;;;;;;5051367;28;20848;-57
2022/03/26 10:36:42;;;;;;;44.43;22.97;;;;;;;;;;5051148;28;21050;-56
2022/03/26 10:39:13;;;;;;;47.23;24.93;;;;;;;;;;5050729;28;20427;-57
2022/03/26 10:41:39;;;;;;;39.80;23.23;;;;;;;;;;5051000;28;20518;-56
2022/03/26 10:44:07;;;;;;;41.53;23.80;;;;;;;;;;5050013;28;21013;-62
2022/03/26 10:46:41;;;;;;;42.40;23.47;;;;;;;;;;5044464;28;20431;-58
2022/03/26 10:49:07;;;;;;;48.17;24.77;;;;;;;;;;5050480;28;21330;-57
2022/03/26 10:51:37;;;;;;;43.73;23.30;;;;;;;;;;5050649;28;20427;-57
2022/03/26 10:54:10;;;;;;;40.10;21.97;;;;;;;;;;5050366;28;20509;-55
2022/03/26 10:56:37;;;;;;;40.30;22.90;;;;;;;;;;5050031;28;20470;-57
2022/03/26 10:59:04;;;;;;;41.33;22.97;;;;;;;;;;5050634;28;20423;-57
2022/03/26 11:01:30;;;;;;;40.87;21.67;;;;;;;;;;5050486;28;20416;-59
2022/03/26 11:03:57;;;;;;;35.80;22.47;;;;;;;;;;5040762;28;20494;-60
2022/03/26 11:06:26;;;;;;;38.20;23.93;;;;;;;;;;5050223;28;20431;-58
2022/03/26 11:08:59;;;;;;;44.63;23.37;;;;;;;;;;5050022;28;20511;-59
2022/03/26 11:11:26;;;;;;;45.40;24.70;;;;;;;;;;5050335;28;20550;-57
2022/03/26 11:13:53;;;;;;;41.60;24.03;;;;;;;;;;5050191;28;20423;-58
2022/03/26 11:16:22;;;;;;;45.63;22.73;;;;;;;;;;5049408;28;20509;-60
2022/03/26 11:19:08;;;;;;;34.13;21.07;;;;;;;;;;5045704;28;20547;-57
2022/03/26 11:21:34;;;;;;;36.43;22.33;;;;;;;;;;5044913;28;20423;-59
2022/03/26 11:24:16;;;;;;;42.77;22.13;;;;;;;;;;5049649;28;20424;-59
2022/03/26 11:27:01;;;;;;;41.87;20.03;;;;;;;;;;5031977;28;20435;-57
2022/03/26 11:29:45;;;;;;;20.47;12.90;;;;;;;;;;5043466;28;20428;-58
2022/03/26 11:32:17;;;;;;;18.53;12.80;;;;;;;;;;5033471;28;20835;-59
2022/03/26 11:34:44;;;;;;;9.67;6.50;;;;;;;;;;5049450;28;20427;-57
2022/03/26 11:37:11;;;;;;;18.40;10.13;;;;;;;;;;5039236;28;20542;-58
2022/03/26 11:39:45;;;;;;;18.37;9.47;;;;;;;;;;5049738;28;20458;-57
2022/03/26 11:42:11;;;;;;;14.10;8.40;;;;;;;;;;5031955;28;20829;-57
2022/03/26 11:44:43;;;;;;;14.07;7.87;;;;;;;;;;5031549;28;20470;-55
2022/03/26 11:53:08;;;;;;;9.10;7.67;;;;;;;;;;5049534;28;20792;-55
2022/03/26 11:55:47;;;;;;;9.07;7.57;;;;;;;;;;5046085;28;20447;-55
2022/03/26 11:58:17;;;;;;;8.10;6.80;;;20.40;1.00;;;;;;5041315;28;20944;-55
2022/03/26 12:01:02;;;;;;;12.00;6.70;;;23.90;1.00;;;;;;5051059;28;20423;-55
2022/03/26 12:03:30;;;;;;;13.70;7.30;;;23.70;1.00;;;;;;5047434;28;20442;-55
2022/03/26 12:08:57;;;;;;;6.67;6.13;;;;;;;;;;5053744;28;20431;-54
2022/03/26 12:11:32;;;;;;;7.50;6.80;;;;;;;;;;5035653;28;20422;-56
2022/03/26 12:14:00;;;;;;;6.13;5.50;;;;;;;;;;5050351;28;20427;-57
2022/03/26 12:16:46;;;;;;;7.33;6.03;;;;;;;;;;5053841;28;20809;-56
2022/03/26 12:19:11;;;;;;;8.90;5.90;;;;;;;;;;5045397;28;20407;-57
2022/03/26 12:21:49;;;;;;;7.43;5.73;;;;;;;;;;5053616;28;20423;-55
2022/03/26 12:24:18;;;;;;;10.60;6.57;;;;;;;;;;5046084;28;20177;-56
2022/03/26 12:26:51;;;;;;;18.23;7.60;;;;;;;;;;5044024;28;20640;-56
2022/03/26 12:29:18;;;;;;;6.37;5.77;;;;;;;;;;5046073;28;20443;-56
2022/03/26 12:31:44;;;;;;;7.83;6.53;;;;;;;;;;5053568;28;20427;-56
2022/03/26 12:34:10;;;;;;;8.57;6.63;;;;;;;;;;5035190;28;20554;-56
2022/03/26 12:36:36;;;;;;;10.20;7.83;;;;;;;;;;5053437;28;20215;-56
2022/03/26 12:39:04;;;;;;;6.90;6.30;;;;;;;;;;5053062;28;20189;-56
2022/03/26 12:41:31;;;;;;;10.23;7.23;;;;;;;;;;5053329;28;20466;-56
2022/03/26 12:43:58;;;;;;;12.70;7.60;;;;;;;;;;5044201;28;21081;-56
2022/03/26 12:46:31;;;;;;;8.83;6.33;;;;;;;;;;5053026;28;20411;-56
2022/03/26 12:48:58;;;;;;;8.47;6.53;;;;;;;;;;5052985;28;20541;-57
2022/03/26 12:51:27;;;;;;;10.17;6.90;;;;;;;;;;5052787;28;20437;-56
2022/03/26 12:53:53;;;;;;;7.53;6.70;;;;;;;;;;5053066;28;20435;-57
2022/03/26 12:56:19;;;;;;;8.10;7.27;;;;;;;;;;5052781;28;20505;-56
2022/03/26 12:58:57;;;;;;;6.63;5.67;;;;;;;;;;5043967;28;20493;-57
2022/03/26 13:01:23;;;;;;;9.50;6.00;;;;;;;;;;5046236;28;20423;-56
2022/03/26 13:03:50;;;;;;;7.77;5.83;;;;;;;;;;5052667;28;20773;-56
2022/03/26 13:06:17;;;;;;;8.30;6.07;;;;;;;;;;5052860;28;20430;-56
2022/03/26 13:08:53;;;;;;;7.43;6.47;;;;;;;;;;5052596;28;20427;-56
2022/03/26 13:11:20;;;;;;;11.93;6.27;;;;;;;;;;5043601;28;20500;-57
2022/03/26 13:13:47;;;;;;;7.10;6.47;;;;;;;;;;5044990;28;20435;-58
2022/03/26 13:16:15;;;;;;;7.03;6.43;;;;;;;;;;5061133;28;20533;-56
2022/03/26 13:18:45;;;;;;;7.73;6.87;;;;;;;;;;5071882;28;20419;-57
2022/03/26 13:21:13;;;;;;;9.27;7.13;;;;;;;;;;5063655;28;20425;-56
2022/03/26 13:23:41;;;;;;;10.57;6.70;;;;;;;;;;5071747;28;20422;-56
2022/03/26 13:26:07;;;;;;;6.33;5.73;;;;;;;;;;5071984;28;20460;-57
2022/03/26 13:28:37;;;;;;;6.50;5.67;;;;;;;;;;5072339;28;20415;-57
2022/03/26 13:31:19;;;;;;;6.50;5.90;;;;;;;;;;5071111;28;20415;-58
2022/03/26 13:33:45;;;;;;;7.90;7.10;;;;;;;;;;5068006;28;20426;-57
2022/03/26 13:36:12;;;;;;;6.93;6.27;;;;;;;;;;5063058;28;20422;-57
2022/03/26 13:38:39;;;;;;;9.27;6.80;;;;;;;;;;5071407;28;20426;-56
2022/03/26 13:41:16;;;;;;;6.60;5.97;;;;;;;;;;5071434;28;20422;-57
2022/03/26 13:43:42;;;;;;;7.87;7.03;;;;;;;;;;5071471;28;20916;-57
2022/03/26 13:46:08;;;;;;;10.40;6.83;;;;;;;;;;5071467;28;20423;-56
2022/03/26 13:48:53;;;;;;;10.67;7.20;;;;;;;;;;5070732;28;20430;-56
2022/03/26 13:51:28;;;;;;;5.90;5.40;;;;;;;;;;5064825;28;20925;-56
2022/03/26 13:53:55;;;;;;;8.70;7.00;;;;;;;;;;5072002;28;20422;-56
2022/03/26 13:56:28;;;;;;;10.33;6.60;;;;;;;;;;5071724;28;20539;-56
2022/03/26 13:58:54;;;;;;;11.00;8.07;;;;;;;;;;5071824;28;20423;-56
2022/03/26 14:01:21;;;;;;;11.57;8.30;;;;;;;;;;5071837;28;20463;-56
2022/03/26 14:03:55;;;;;;;8.77;6.60;;;;;;;;;;5070651;28;20427;-56
2022/03/26 14:06:21;;;;;;;9.33;7.80;;;;;;;;;;5064750;28;20443;-56
2022/03/26 14:08:48;;;;;;;10.00;8.13;;;;;;;;;;5071448;28;20831;-56
2022/03/26 14:11:17;;;;;;;12.23;9.87;;;;;;;;;;5071546;28;20184;-57
2022/03/26 14:13:43;;;;;;;8.90;8.00;;;;;;;;;;5071422;28;20493;-56
2022/03/26 14:16:10;;;;;;;13.57;8.13;;;;;;;;;;5071139;28;20493;-56
2022/03/26 14:18:36;;;;;;;9.47;8.47;;;;;;;;;;5071194;28;20957;-56
2022/03/26 14:21:02;;;;;;;12.43;8.20;;;;;;;;;;5052684;28;20465;-56
2022/03/26 14:23:28;;;;;;;7.57;6.77;;;;;;;;;;5070603;28;20410;-56
2022/03/26 14:25:54;;;;;;;10.13;8.60;;;;;;;;;;5070695;28;20954;-56
2022/03/26 14:28:20;;;;;;;18.77;8.60;;;;;;;;;;5071195;28;20476;-56
2022/03/26 14:30:46;;;;;;;13.73;9.00;;;23.20;1.00;;;;;;5071239;28;20433;-56
2022/03/26 14:33:12;;;;;;;14.13;8.83;;;;;;;;;;5045012;28;20904;-56
2022/03/26 14:35:42;;;;;;;11.07;8.80;;;;;;;;;;5071174;28;20267;-56